Time;durP1;ratioP1;P1;durP2;ratioP2;P2;SDS_P1;SDS_P2;PMS_P1;PMS_P2;Temp;Humidity;BMP_temperature;BMP_pressure;BME280_temperature;BME280_humidity;BME280_pressure;Samples;Min_cycle;Max_cycle;Signal;HPM_P1;HPM_P2
2021/05/03 00:01:46;;;;;;;2.63;1.13;;;;;;;13.78;67.58;100638.28;5094048;28;20052;-73
2021/05/03 00:04:11;;;;;;;3.42;1.30;;;;;;;13.71;67.50;100632.59;5092875;28;20036;-73
2021/05/03 00:06:37;;;;;;;1.55;1.15;;;;;;;13.68;67.96;100633.31;5093904;28;20039;-76
2021/05/03 00:09:04;;;;;;;5.25;1.45;;;;;;;13.80;67.24;100630.34;5093966;28;20032;-75
2021/05/03 00:11:30;;;;;;;3.22;1.73;;;;;;;13.71;67.44;100627.81;5093568;28;20035;-73
2021/05/03 00:13:56;;;;;;;4.10;1.20;;;;;;;13.72;66.96;100629.41;5093844;28;20067;-73
2021/05/03 00:16:21;;;;;;;1.83;1.15;;;;;;;13.60;66.68;100638.78;5094057;28;20027;-73
2021/05/03 00:18:47;;;;;;;2.17;1.00;;;;;;;13.59;66.69;100625.19;5094313;28;20386;-73
2021/05/03 00:21:12;;;;;;;1.50;1.10;;;;;;;13.51;67.11;100610.28;5093917;28;20386;-73
2021/05/03 00:23:41;;;;;;;4.57;1.40;;;;;;;13.59;68.10;100614.81;5093658;28;20028;-73
2021/05/03 00:26:11;;;;;;;1.98;1.20;;;;;;;13.66;68.29;100614.13;5094080;28;20051;-73
2021/05/03 00:28:40;;;;;;;3.85;1.27;;;;;;;13.61;68.22;100618.03;5094077;28;20032;-74
2021/05/03 00:31:06;;;;;;;2.90;1.27;;;;;;;13.60;65.66;100622.03;5077425;28;20028;-73
2021/05/03 00:33:31;;;;;;;2.05;1.38;;;;;;;13.47;65.31;100614.97;5094002;28;20105;-74
2021/05/03 00:35:57;;;;;;;1.90;1.08;;;;;;;13.42;65.10;100612.50;5093416;28;20470;-74
2021/05/03 00:38:24;;;;;;;2.80;1.00;;;;;;;13.29;65.55;100611.88;5093688;28;20028;-74
2021/05/03 00:40:50;;;;;;;1.02;1.02;;;;;;;13.23;64.92;100601.38;5094608;28;20030;-74
2021/05/03 00:43:20;;;;;;;2.88;1.30;;;;;;;13.22;64.66;100603.38;5093305;28;20039;-74
2021/05/03 00:45:49;;;;;;;4.32;1.40;;;;;;;13.30;64.43;100602.31;5093505;28;20119;-74
2021/05/03 00:48:15;;;;;;;2.50;1.30;;;;;;;13.32;64.21;100602.75;5094074;28;20451;-74
2021/05/03 00:50:42;;;;;;;2.05;1.15;;;;;;;13.20;64.74;100604.88;5093209;28;20020;-74
2021/05/03 00:53:08;;;;;;;3.47;1.67;;;;;;;13.22;65.02;100611.75;5076410;28;20028;-74
2021/05/03 00:55:34;;;;;;;2.92;1.15;;;;;;;13.23;64.82;100601.38;5094643;28;20032;-74
2021/05/03 00:58:00;;;;;;;1.20;1.10;;;;;;;13.22;65.55;100605.34;5093890;28;20425;-74
2021/05/03 01:03:11;;;;;;;4.78;2.05;;;;;;;13.14;65.88;100614.75;5094498;28;20118;-74
2021/05/03 01:05:37;;;;;;;2.53;1.40;;;;;;;13.14;66.26;100607.16;5093152;28;20044;-74
2021/05/03 01:08:03;;;;;;;3.05;1.65;;;;;;;13.14;66.04;100614.75;5076666;28;20105;-74
2021/05/03 01:10:30;;;;;;;2.72;1.50;;;;;;;13.16;65.70;100602.03;5093192;28;20055;-74
2021/05/03 01:12:57;;;;;;;2.70;1.17;;;;;;;13.21;66.33;100609.28;5093212;28;20030;-74
2021/05/03 01:15:24;;;;;;;2.38;1.40;;;;;;;13.14;65.44;100598.78;5095637;28;20032;-74
2021/05/03 01:17:58;;;;;;;2.67;1.20;;;;;;;13.10;65.60;100593.16;5094913;28;20032;-74
2021/05/03 01:20:27;;;;;;;1.77;1.60;;;;;;;13.15;65.78;100600.38;5092646;28;20028;-74
2021/05/03 01:22:56;;;;;;;3.63;1.27;;;;;;;13.05;65.70;100603.81;5092739;28;20035;-74
2021/05/03 01:25:27;;;;;;;2.15;1.58;;;;;;;13.05;66.66;100610.22;5092201;28;20048;-74
2021/05/03 01:27:55;;;;;;;3.25;1.40;;;;;;;13.02;66.90;100615.72;5092371;28;20131;-74
2021/05/03 01:30:27;;;;;;;2.28;1.33;;;;;;;13.02;67.31;100613.72;5093382;28;20467;-74
2021/05/03 01:32:53;;;;;;;1.95;1.67;;;;;;;13.00;67.23;100599.34;5075989;28;20032;-73
2021/05/03 01:35:18;;;;;;;2.05;1.40;;;;;;;12.84;67.29;100577.06;5092580;28;20031;-73
2021/05/03 01:37:50;;;;;;;5.15;2.25;;;;;;;13.00;68.21;100604.91;5093061;28;20032;-74
2021/05/03 01:40:16;;;;;;;4.15;1.52;;;;;;;13.15;67.13;100614.34;5092807;28;20115;-74
2021/05/03 01:42:41;;;;;;;2.40;1.40;;;;;;;13.11;66.87;100605.94;5093078;28;20364;-73
2021/05/03 01:45:08;;;;;;;2.50;1.58;;;;;;;13.02;67.52;100605.34;5092408;28;20026;-74
2021/05/03 01:47:35;;;;;;;2.25;1.27;;;;;;;12.95;67.92;100599.63;5092429;28;20029;-74
2021/05/03 01:50:00;;;;;;;1.77;1.27;;;;;;;12.98;67.60;100603.66;5092706;28;20024;-74
2021/05/03 01:52:26;;;;;;;1.77;1.30;;;;;;;12.92;67.83;100605.94;5092704;28;20554;-74
2021/05/03 01:54:52;;;;;;;2.75;1.65;;;;;;;12.82;67.55;100575.81;5092380;28;20024;-74
2021/05/03 01:57:19;;;;;;;3.35;1.25;;;;;;;13.13;67.49;100604.75;5092944;28;20039;-73
2021/05/03 01:59:44;;;;;;;2.63;1.40;;;;;;;13.11;67.28;100611.50;5093161;28;20374;-74
2021/05/03 02:02:10;;;;;;;1.92;1.73;;;;;;;13.02;68.31;100613.72;5092342;28;20122;-74
2021/05/03 02:04:36;;;;;;;3.47;1.50;;;;;;;13.07;67.67;100616.22;5092309;28;20032;-74
2021/05/03 02:07:01;;;;;;;3.75;1.48;;;;;;;13.06;67.56;100623.00;5092298;28;20060;-74
2021/05/03 02:09:27;;;;;;;1.15;1.10;;;;;;;12.97;67.72;100616.81;5092580;28;20055;-74
2021/05/03 02:11:52;;;;;;;2.00;1.77;;;;;;;13.03;68.09;100609.75;5092267;28;20081;-74
2021/05/03 02:14:18;;;;;;;5.07;1.30;;;;;;;13.00;67.69;100598.53;5092166;28;20023;-73
2021/05/03 02:16:43;;;;;;;1.40;1.20;;;;;;;12.95;67.89;100604.41;5092191;28;20035;-74
2021/05/03 02:19:10;;;;;;;1.80;1.17;;;;;;;12.88;68.22;100602.25;5092181;28;20089;-74
2021/05/03 02:21:35;;;;;;;3.75;1.55;;;;;;;12.88;68.07;100610.63;5092727;28;20040;-74
2021/05/03 02:24:01;;;;;;;2.13;1.30;;;;;;;12.90;68.53;100605.50;5091858;28;20121;-74
2021/05/03 02:26:27;;;;;;;3.85;1.30;;;;;;;12.93;68.30;100604.75;5075267;28;20040;-73
2021/05/03 02:28:53;;;;;;;4.50;1.42;;;;;;;12.88;68.59;100599.47;5094651;28;20024;-73
2021/05/03 02:31:18;;;;;;;2.60;1.35;;;;;;;12.88;68.48;100607.03;5096423;28;20077;-73
2021/05/03 02:33:44;;;;;;;4.35;1.23;;;;;;;12.80;68.35;100606.09;5095730;28;20389;-74
2021/05/03 02:36:10;;;;;;;4.32;1.50;;;;;;;12.88;67.76;100616.22;5095728;28;20035;-74
2021/05/03 02:38:36;;;;;;;3.60;1.30;;;;;;;12.79;68.50;100615.66;5096030;28;20024;-73
2021/05/03 02:41:02;;;;;;;3.53;1.38;;;;;;;12.85;68.60;100608.59;5095934;28;20594;-74
2021/05/03 02:43:30;;;;;;;1.50;1.40;;;;;;;12.79;68.51;100612.88;5095906;28;20486;-74
2021/05/03 02:45:56;;;;;;;3.53;1.38;;;;;;;12.75;69.07;100614.78;5095493;28;20498;-74
2021/05/03 02:48:21;;;;;;;3.22;2.15;;;;;;;12.89;68.85;100615.06;5095776;28;20119;-74
2021/05/03 02:50:47;;;;;;;4.32;3.97;;;;;;;12.81;69.13;100613.28;5095710;28;20024;-74
2021/05/03 02:53:13;;;;;;;8.85;6.10;;;;;;;12.81;69.13;100636.44;5095734;28;20478;-74
2021/05/03 02:55:41;;;;;;;4.78;3.92;;;;;;;12.78;69.03;100644.72;5095891;28;20383;-74
2021/05/03 02:58:07;;;;;;;3.00;2.50;;;;;;;12.75;68.91;100642.69;5095372;28;20475;-73
2021/05/03 03:00:35;;;;;;;3.60;2.60;;;;;;;12.65;68.71;100648.84;5095530;28;20035;-74
2021/05/03 03:03:03;;;;;;;4.03;2.60;;;;;;;12.59;69.84;100640.75;5095489;28;20043;-74
2021/05/03 03:05:29;;;;;;;2.95;2.25;;;;;;;12.56;70.50;100641.47;5095152;28;20466;-74
2021/05/03 03:07:57;;;;;;;6.50;2.72;;;;;;;12.51;70.82;100655.72;5095138;28;20020;-73
2021/05/03 03:10:22;;;;;;;4.80;3.05;;;;;;;12.50;70.46;100648.53;5095109;28;20032;-73
2021/05/03 03:12:49;;;;;;;4.60;2.20;;;;;;;12.55;70.62;100651.03;5095042;28;20031;-73
2021/05/03 03:15:17;;;;;;;4.68;2.42;;;;;;;12.54;70.57;100646.63;5095535;28;20051;-73
2021/05/03 03:17:47;;;;;;;2.45;2.03;;;;;;;12.53;70.58;100647.81;5094939;28;20110;-74
2021/05/03 03:20:13;;;;;;;4.25;3.20;;;;;;;12.53;70.63;100650.59;5095480;28;20420;-74
2021/05/03 03:22:39;;;;;;;4.95;3.20;;;;;;;12.51;70.91;100644.56;5094858;28;20032;-74
2021/05/03 03:25:05;;;;;;;4.03;3.03;;;;;;;12.47;70.95;100637.31;5094773;28;20095;-73
2021/05/03 03:27:31;;;;;;;3.88;2.92;;;;;;;12.44;70.61;100638.81;5094734;28;20016;-74
2021/05/03 03:29:57;;;;;;;4.65;2.90;;;;;;;12.53;71.45;100649.78;5094791;28;20031;-73
2021/05/03 03:32:23;;;;;;;5.07;3.33;;;;;;;12.53;71.26;100645.03;5094822;28;20032;-74
2021/05/03 03:34:48;;;;;;;3.90;3.20;;;;;;;12.53;71.22;100658.16;5096116;28;20028;-73
2021/05/03 03:37:14;;;;;;;7.07;6.32;;;;;;;12.50;71.47;100665.28;5096402;28;20028;-73
2021/05/03 03:39:40;;;;;;;6.78;5.32;;;;;;;12.52;71.51;100668.53;5095264;28;20043;-73
2021/05/03 03:42:05;;;;;;;5.75;2.90;;;;;;;12.63;71.20;100670.75;5094718;28;20063;-73
2021/05/03 03:44:31;;;;;;;7.45;4.53;;;;;;;12.68;70.82;100662.09;5094609;28;20028;-73
2021/05/03 03:46:56;;;;;;;11.70;7.75;;;;;;;12.85;70.17;100661.66;5094378;28;20138;-73
2021/05/03 03:49:22;;;;;;;9.48;6.18;;;;;;;12.80;69.83;100656.38;5094842;28;20032;-73
2021/05/03 03:51:47;;;;;;;7.82;5.20;;;;;;;12.82;69.63;100651.22;5094292;28;20062;-73
2021/05/03 03:54:13;;;;;;;8.90;4.60;;;;;;;12.75;69.81;100648.28;5093957;28;20039;-73
2021/05/03 03:56:39;;;;;;;6.63;4.82;;;;;;;12.66;70.32;100654.06;5094491;28;20055;-73
2021/05/03 03:59:07;;;;;;;7.35;4.63;;;;;;;12.64;70.56;100659.22;5094676;28;20445;-73
2021/05/03 04:01:34;;;;;;;4.72;3.20;;;;;;;12.76;69.76;100650.69;5094341;28;20385;-73
2021/05/03 04:04:03;;;;;;;5.50;3.63;;;;;;;12.66;70.44;100661.63;5094335;28;20112;-73
2021/05/03 04:12:12;;;;;;;5.53;3.15;;;;;;;12.62;70.38;100666.31;5073079;28;20068;-73
2021/05/03 04:28:05;;;;;;;4.20;1.98;;;;;;;12.84;70.06;100672.03;5094837;28;20067;-73
2021/05/03 04:30:30;;;;;;;5.55;2.00;;;;;;;12.99;69.49;100664.72;5093561;28;20050;-73
2021/05/03 04:32:56;;;;;;;3.78;2.17;;;;;;;13.05;69.21;100682.03;5093523;28;20024;-74
2021/05/03 04:35:22;;;;;;;2.47;1.67;;;;;;;13.04;69.06;100672.81;5093479;28;20024;-74
2021/05/03 04:37:48;;;;;;;3.97;1.80;;;;;;;13.00;69.31;100673.94;5094053;28;20032;-73
2021/05/03 04:40:14;;;;;;;4.45;2.03;;;;;;;13.05;69.38;100677.25;5076649;28;20390;-73
2021/05/03 04:42:40;;;;;;;3.33;1.98;;;;;;;13.13;69.19;100683.78;5100695;28;20043;-73
2021/05/03 04:45:06;;;;;;;4.90;1.77;;;;;;;13.15;69.27;100689.78;5093795;28;20381;-72
2021/05/03 04:47:31;;;;;;;3.67;2.03;;;;;;;13.31;68.94;100698.13;5093222;28;20481;-71
2021/05/03 04:49:58;;;;;;;4.20;1.98;;;;;;;13.42;68.92;100687.16;5092909;28;20064;-74
2021/05/03 04:52:25;;;;;;;7.20;2.10;;;;;;;13.50;68.66;100684.13;5092874;28;20039;-74
2021/05/03 04:54:51;;;;;;;2.65;1.65;;;;;;;13.54;68.45;100693.41;5093138;28;20182;-74
2021/05/03 04:57:16;;;;;;;3.33;1.70;;;;;;;13.49;69.28;100690.09;5076324;28;20115;-73
2021/05/03 04:59:45;;;;;;;2.80;1.20;;;;;;;13.57;68.94;100698.25;5093609;28;20116;-74
2021/05/03 05:02:11;;;;;;;3.20;1.50;;;;;;;13.61;68.93;100701.91;5092999;28;20114;-74
2021/05/03 05:04:37;;;;;;;2.85;1.60;;;;;;;13.52;69.52;100704.13;5093441;28;20110;-73
2021/05/03 05:07:03;;;;;;;1.52;1.30;;;;;;;13.65;69.20;100709.56;5093216;28;20024;-74
2021/05/03 05:09:29;;;;;;;3.83;1.90;;;;;;;13.72;68.88;100709.69;5093053;28;20028;-77
2021/05/03 05:11:54;;;;;;;2.95;2.28;;;;;;;13.77;68.98;100703.81;5093535;28;20032;-75
2021/05/03 05:14:21;;;;;;;1.70;1.52;;;;;;;13.80;68.97;100703.06;5093112;28;20089;-72
2021/05/03 05:16:48;;;;;;;3.13;1.67;;;;;;;14.02;68.29;100704.25;5092603;28;20102;-73
2021/05/03 05:19:15;;;;;;;2.50;1.67;;;;;;;14.08;68.97;100705.56;5093370;28;20428;-74
2021/05/03 05:21:41;;;;;;;5.03;1.77;;;;;;;14.14;68.68;100699.25;5092758;28;20085;-73
2021/05/03 05:24:07;;;;;;;3.40;2.40;;;;;;;14.25;68.30;100705.03;5092892;28;20050;-73
2021/05/03 05:26:32;;;;;;;3.25;1.90;;;;;;;14.30;68.02;100704.72;5092626;28;20031;-73
2021/05/03 05:28:58;;;;;;;4.72;1.77;;;;;;;14.40;68.08;100703.28;5093268;28;20028;-74
2021/05/03 05:31:24;;;;;;;2.50;1.45;;;;;;;14.44;67.71;100715.34;5092882;28;20486;-73
2021/05/03 05:33:49;;;;;;;2.58;1.58;;;;;;;14.53;67.71;100713.09;5093028;28;20036;-73
2021/05/03 05:36:15;;;;;;;2.42;1.45;;;;;;;14.71;67.28;100709.78;5092608;28;20525;-73
2021/05/03 05:38:40;;;;;;;4.25;1.60;;;;;;;14.84;67.07;100705.53;5092841;28;20056;-74
2021/05/03 05:41:06;;;;;;;2.90;1.50;;;;;;;14.99;66.62;100710.16;5092860;28;20382;-73
2021/05/03 05:43:32;;;;;;;5.47;1.88;;;;;;;15.12;66.17;100711.50;5092489;28;20481;-74
2021/05/03 05:45:57;;;;;;;4.45;1.77;;;;;;;15.28;65.51;100718.91;5093027;28;20024;-73
2021/05/03 05:48:23;;;;;;;3.20;1.88;;;;;;;15.38;65.37;100712.63;5092525;28;20514;-73
2021/05/03 05:50:49;;;;;;;3.60;2.00;;;;;;;15.52;65.40;100712.00;5092895;28;20028;-73
2021/05/03 05:53:14;;;;;;;3.97;1.45;;;;;;;15.63;64.64;100702.53;5092462;28;20028;-74
2021/05/03 05:55:40;;;;;;;6.65;1.25;;;;;;;15.79;64.67;100721.13;5092571;28;20032;-74
2021/05/03 05:58:07;;;;;;;5.30;1.77;;;;;;;15.89;63.59;100706.41;5093148;28;20031;-74
2021/05/03 06:00:33;;;;;;;2.90;1.33;;;;;;;16.11;63.07;100710.19;5092501;28;20477;-74
2021/05/03 06:02:59;;;;;;;4.90;1.77;;;;;;;16.29;62.96;100721.56;5094253;28;20063;-74
2021/05/03 06:05:24;;;;;;;3.53;1.70;;;;;;;16.40;62.23;100714.03;5096006;28;20028;-75
2021/05/03 06:07:50;;;;;;;2.35;1.40;;;;;;;16.61;61.22;100717.00;5096190;28;20184;-74
2021/05/03 06:10:16;;;;;;;2.55;1.33;;;;;;;16.65;60.72;100722.66;5096210;28;20112;-74
2021/05/03 06:12:42;;;;;;;2.15;1.40;;;;;;;16.80;60.42;100720.78;5096248;28;20485;-74
2021/05/03 06:15:08;;;;;;;1.85;1.25;;;;;;;16.74;58.78;100709.09;5096026;28;20028;-74
2021/05/03 06:17:34;;;;;;;4.63;2.10;;;;;;;16.66;61.15;100725.06;5095856;28;20032;-74
2021/05/03 06:19:59;;;;;;;2.95;2.47;;;;;;;16.53;63.20;100726.59;5095715;28;20085;-74
2021/05/03 06:22:30;;;;;;;4.22;1.95;;;;;;;16.39;64.35;100734.91;5095056;28;20146;-74
2021/05/03 06:24:56;;;;;;;3.20;2.25;;;;;;;16.39;64.22;100732.09;5095533;28;20047;-74
2021/05/03 06:27:21;;;;;;;6.28;2.03;;;;;;;16.46;63.64;100738.59;5096481;28;20401;-74
2021/05/03 06:29:47;;;;;;;4.85;2.55;;;;;;;16.58;63.90;100740.25;5095909;28;20039;-74
2021/05/03 06:32:12;;;;;;;6.93;2.17;;;;;;;16.44;61.50;100734.53;5095292;28;20113;-74
2021/05/03 06:34:38;;;;;;;5.05;2.10;;;;;;;16.76;60.91;100743.22;5095321;28;20032;-74
2021/05/03 06:37:04;;;;;;;4.95;1.70;;;;;;;17.00;60.17;100745.38;5095912;28;20027;-73
2021/05/03 06:39:29;;;;;;;4.97;1.55;;;;;;;17.22;58.87;100745.50;5078391;28;20118;-74
2021/05/03 06:41:55;;;;;;;2.80;1.15;;;;;;;17.42;57.33;100746.00;5094997;28;20028;-74
2021/05/03 06:44:21;;;;;;;2.72;1.05;;;;;;;17.60;57.06;100749.66;5095207;28;20107;-74
2021/05/03 06:46:47;;;;;;;2.22;1.42;;;;;;;17.85;56.25;100749.75;5095584;28;20103;-73
2021/05/03 06:49:14;;;;;;;1.85;1.30;;;;;;;17.84;56.04;100744.50;5096788;28;20032;-73
2021/05/03 06:51:40;;;;;;;2.10;1.45;;;;;;;17.93;55.16;100745.75;5095197;28;20115;-74
2021/05/03 06:54:05;;;;;;;1.08;0.90;;;;;;;18.14;54.87;100756.22;5095083;28;20120;-74
2021/05/03 06:56:31;;;;;;;3.85;1.42;;;;;;;18.36;53.91;100747.78;5095220;28;20052;-74
2021/05/03 06:58:57;;;;;;;2.03;1.17;;;;;;;18.15;54.67;100740.94;5095249;28;20032;-74
2021/05/03 07:01:22;;;;;;;3.95;1.33;;;;;;;18.06;55.00;100744.16;5095206;28;20027;-74
2021/05/03 07:03:49;;;;;;;3.55;1.48;;;;;;;18.17;53.98;100746.19;5094708;28;20355;-73
2021/05/03 07:06:14;;;;;;;5.55;1.30;;;;;;;18.32;53.58;100742.97;5095274;28;20132;-74
2021/05/03 07:08:42;;;;;;;4.07;1.30;;;;;;;18.57;53.09;100750.59;5094723;28;20028;-74
2021/05/03 07:11:19;;;;;;;4.63;2.08;;;;;;;18.70;53.03;100756.69;5094632;28;20107;-74
2021/05/03 07:13:45;;;;;;;3.88;1.20;;;;;;;18.72;53.11;100746.59;5094637;28;20028;-73
2021/05/03 07:16:10;;;;;;;3.95;1.40;;;;;;;18.74;53.20;100751.81;5095122;28;20454;-74
2021/05/03 07:18:37;;;;;;;2.25;1.40;;;;;;;18.67;53.32;100749.00;5094957;28;20413;-74
2021/05/03 07:21:06;;;;;;;3.63;1.50;;;;;;;18.78;53.10;100756.25;5095442;28;20024;-74
2021/05/03 07:23:32;;;;;;;2.80;1.40;;;;;;;18.77;52.57;100749.00;5093608;28;20527;-75
2021/05/03 07:25:59;;;;;;;3.08;1.70;;;;;;;18.86;53.08;100759.88;5094379;28;20058;-74
2021/05/03 07:28:24;;;;;;;2.55;1.42;;;;;;;19.10;52.28;100756.19;5095825;28;20024;-74
2021/05/03 07:30:57;;;;;;;4.97;1.60;;;;;;;18.74;52.26;100760.28;5094219;28;20035;-75
2021/05/03 07:33:23;;;;;;;7.38;1.65;;;;;;;19.18;52.00;100762.63;5094902;28;20095;-74
2021/05/03 07:35:48;;;;;;;7.75;2.90;;;;;;;19.03;51.22;100764.66;5094509;28;20034;-74
2021/05/03 07:38:14;;;;;;;4.05;1.60;;;;;;;18.70;52.83;100771.56;5094263;28;20040;-74
2021/05/03 07:40:39;;;;;;;2.50;1.45;;;;;;;19.02;51.42;100770.72;5094522;28;20024;-74
2021/05/03 07:43:07;;;;;;;7.22;2.10;;;;;;;18.99;52.37;100782.81;5094013;28;20036;-75
2021/05/03 07:45:33;;;;;;;23.30;3.63;;;;;;;19.40;51.41;100774.63;5094314;28;20024;-75
2021/05/03 07:47:59;;;;;;;5.43;1.60;;;;;;;18.94;50.38;100771.94;5094100;28;20545;-74
2021/05/03 07:50:28;;;;;;;9.40;1.67;;;;;;;19.58;49.36;100777.38;5094724;28;20028;-74
2021/05/03 07:52:55;;;;;;;3.22;1.05;;;;;;;20.13;47.63;100773.84;5093962;28;20024;-75
2021/05/03 07:55:21;;;;;;;3.28;1.35;;;;;;;20.34;46.94;100776.50;5094294;28;20036;-74
2021/05/03 07:57:47;;;;;;;2.65;1.50;;;;;;;20.47;47.26;100774.03;5093936;28;20115;-75
2021/05/03 08:00:13;;;;;;;3.78;1.33;;;;;;;20.57;46.36;100775.16;5094085;28;20400;-75
2021/05/03 08:02:39;;;;;;;3.55;1.20;;;;;;;20.90;45.81;100779.31;5093777;28;20035;-74
2021/05/03 08:05:05;;;;;;;3.42;1.48;;;;;;;20.93;45.61;100762.31;5093675;28;20024;-75
2021/05/03 08:07:31;;;;;;;3.25;1.85;;;;;;;20.34;48.92;100792.66;5093979;28;20463;-75
2021/05/03 08:09:56;;;;;;;2.17;1.80;;;;;;;20.05;49.72;100787.22;5093950;28;20039;-75
2021/05/03 08:12:25;;;;;;;5.15;1.58;;;;;;;20.09;49.83;100795.69;5093660;28;20484;-74
2021/05/03 08:14:53;;;;;;;3.00;2.05;;;;;;;20.04;49.26;100784.81;5093590;28;20028;-75
2021/05/03 08:17:19;;;;;;;2.97;2.03;;;;;;;20.51;47.82;100790.97;5093442;28;20032;-75
2021/05/03 08:19:48;;;;;;;2.47;1.15;;;;;;;20.34;48.63;100793.47;5093693;28;20028;-74
2021/05/03 08:22:13;;;;;;;3.85;1.27;;;;;;;20.08;48.62;100779.94;5093325;28;20036;-75
2021/05/03 08:24:39;;;;;;;3.25;1.38;;;;;;;20.03;48.11;100794.53;5092698;28;20054;-75
2021/05/03 08:27:06;;;;;;;1.52;1.30;;;;;;;20.63;46.31;100787.63;5092702;28;20081;-75
2021/05/03 08:29:34;;;;;;;4.28;1.20;;;;;;;20.74;46.07;100782.69;5093518;28;20509;-74
2021/05/03 08:32:02;;;;;;;2.33;1.10;;;;;;;20.85;46.09;100783.38;5093118;28;20031;-75
2021/05/03 08:34:27;;;;;;;4.00;1.40;;;;;;;20.64;46.87;100772.28;5093493;28;20109;-74
2021/05/03 08:36:56;;;;;;;3.35;1.40;;;;;;;19.96;48.69;100786.06;5093731;28;20474;-74
2021/05/03 08:39:24;;;;;;;4.70;1.50;;;;;;;19.92;48.94;100788.09;5093121;28;20089;-74
2021/05/03 08:41:50;;;;;;;3.90;1.38;;;;;;;19.57;50.19;100801.16;5093137;28;20051;-74
2021/05/03 08:44:15;;;;;;;3.58;1.95;;;;;;;19.30;50.73;100798.84;5092909;28;20080;-74
2021/05/03 08:46:44;;;;;;;4.60;1.50;;;;;;;19.21;50.81;100801.28;5092994;28;20024;-74
2021/05/03 08:49:21;;;;;;;2.45;1.10;;;;;;;19.27;51.62;100804.47;5093112;28;20115;-74
2021/05/03 08:51:53;;;;;;;1.30;1.08;;;;;;;19.46;51.10;100797.59;5093280;28;20359;-74
2021/05/03 08:56:45;;;;;;;2.47;2.28;;;;;;;19.58;47.61;100794.28;5094528;28;20430;-74
2021/05/03 08:59:15;;;;;;;2.88;1.48;;;;;;;19.63;46.83;100796.72;5092810;28;20039;-74
2021/05/03 09:01:48;;;;;;;5.95;1.60;;;;;;;19.66;47.23;100792.28;5093403;28;20119;-74
2021/05/03 09:04:14;;;;;;;3.13;1.42;;;;;;;19.55;50.38;100797.97;5093200;28;20022;-74
2021/05/03 09:07:04;;;;;;;3.20;1.50;;;;;;;19.73;49.98;100798.69;5094530;28;20127;-74
2021/05/03 09:09:35;;;;;;;2.33;1.45;;;;;;;19.49;49.34;100799.56;5092924;28;20032;-74
2021/05/03 09:12:24;;;;;;;5.20;1.55;;;;;;;18.82;50.03;100773.97;5077183;28;20036;-74
2021/05/03 09:14:55;;;;;;;3.08;1.85;;;;;;;19.13;49.62;100805.34;5092806;28;20027;-74
2021/05/03 09:17:25;;;;;;;3.75;1.88;;;;;;;19.47;46.84;100811.28;5094458;28;20036;-73
2021/05/03 09:19:51;;;;;;;3.10;1.75;;;;;;;19.73;44.86;100804.34;5094036;28;20025;-73
2021/05/03 09:22:38;;;;;;;2.58;1.98;;;;;;;20.08;43.88;100809.00;5093040;28;20413;-73
2021/05/03 09:25:17;;;;;;;5.72;2.10;;;;;;;19.62;46.02;100809.25;5092134;28;20509;-74
2021/05/03 09:27:42;;;;;;;7.35;1.67;;;;;;;19.18;46.53;100784.38;5092676;28;20032;-73
2021/05/03 09:30:08;;;;;;;7.38;2.83;;;;;;;19.53;46.63;100808.84;5092643;28;20036;-73
2021/05/03 09:32:34;;;;;;;2.10;1.90;;;;;;;19.53;45.85;100811.66;5092573;28;20035;-74
2021/05/03 09:34:59;;;;;;;2.50;1.85;;;;;;;19.62;47.25;100812.88;5092600;28;20126;-74
2021/05/03 09:37:31;;;;;;;4.95;2.03;;;;;;;19.93;46.12;100812.31;5092438;28;20055;-74
2021/05/03 09:39:58;;;;;;;3.83;1.70;;;;;;;20.10;45.38;100819.88;5092537;28;20043;-74
2021/05/03 09:42:40;;;;;;;3.55;1.80;;;;;;;20.10;45.22;100817.06;5092281;28;20107;-74
2021/05/03 09:45:07;;;;;;;6.30;2.10;;;;;;;20.35;43.75;100814.88;5092266;28;20030;-73
2021/05/03 09:47:34;;;;;;;5.60;2.03;;;;;;;20.27;43.94;100816.13;5092291;28;20081;-74
2021/05/03 09:50:22;;;;;;;3.13;1.65;;;;;;;20.32;43.45;100817.72;5092197;28;20024;-74
2021/05/03 09:53:14;;;;;;;3.28;1.58;;;;;;;20.47;44.03;100807.16;5091318;28;20032;-74
2021/05/03 09:55:46;;;;;;;3.00;1.33;;;;;;;19.95;42.93;100821.19;5092040;28;20027;-73
2021/05/03 09:58:20;;;;;;;1.42;1.00;;;;;;;20.21;41.73;100814.16;5092658;28;20475;-73
2021/05/03 10:00:47;;;;;;;;;;;;;;;20.45;41.17;100826.50;5076753;28;20383;-72
2021/05/03 10:03:32;;;;;;;0.95;0.77;;;;;;;20.55;42.42;100820.78;5092210;28;19908;-73
2021/05/03 10:05:58;;;;;;;2.30;1.35;;;;;;;20.99;42.30;100815.59;5091697;28;20021;-74
2021/05/03 10:08:25;;;;;;;2.45;1.63;;;;;;;21.40;41.97;100813.53;5091695;28;20035;-73
2021/05/03 10:10:53;;;;;;;3.67;1.02;;;;;;;21.06;42.48;100812.69;5092276;28;20055;-73
2021/05/03 10:13:19;;;;;;;4.18;1.88;;;;;;;20.50;43.84;100817.63;5092318;28;20436;-73
2021/05/03 10:15:46;;;;;;;2.85;1.40;;;;;;;20.64;43.02;100811.84;5075014;28;20548;-73
2021/05/03 10:18:16;;;;;;;2.80;1.30;;;;;;;20.99;41.73;100809.94;5091914;28;20032;-74
2021/05/03 10:20:43;;;;;;;1.77;1.30;;;;;;;20.76;42.66;100814.16;5091778;28;20505;-73
2021/05/03 10:23:09;;;;;;;3.03;1.50;;;;;;;21.47;41.17;100807.00;5091909;28;20036;-71
2021/05/03 10:25:35;;;;;;;2.65;1.30;;;;;;;21.40;41.91;100812.75;5091427;28;20051;-70
2021/05/03 10:28:01;;;;;;;2.78;1.30;;;;;;;21.27;41.74;100803.97;5091767;28;20359;-70
2021/05/03 10:30:28;;;;;;;4.68;1.40;;;;;;;20.97;43.04;100801.06;5091991;28;20040;-72
2021/05/03 10:33:12;;;;;;;2.03;1.67;;;;;;;21.17;41.94;100805.69;5092355;28;20028;-72
2021/05/03 10:35:43;;;;;;;3.20;1.20;;;;;;;20.84;43.74;100798.75;5088833;28;20467;-74
2021/05/03 10:38:27;;;;;;;4.03;1.20;;;;;;;20.47;44.97;100802.31;5092614;28;20445;-71
2021/05/03 10:40:57;;;;;;;4.05;1.20;;;;;;;20.82;41.93;100798.34;5092375;28;20032;-72
2021/05/03 10:43:28;;;;;;;2.45;1.30;;;;;;;21.01;43.63;100796.97;5091609;28;20020;-73
2021/05/03 10:48:33;;;;;;;3.47;1.33;;;;;;;20.21;44.59;100791.56;5095401;28;20035;-72
2021/05/03 10:51:00;;;;;;;4.53;1.40;;;;;;;20.13;47.55;100780.31;5097398;28;20028;-72
2021/05/03 10:53:35;;;;;;;3.85;1.27;;;;;;;20.02;49.81;100781.59;5095507;28;20024;-72
2021/05/03 10:56:09;;;;;;;1.73;1.30;;;;;;;20.81;48.47;100787.47;5093008;28;20464;-73
2021/05/03 10:58:53;;;;;;;2.97;1.15;;;;;;;21.29;47.50;100793.03;5096740;28;20024;-73
2021/05/03 11:01:19;;;;;;;3.92;0.95;;;;;;;21.22;46.70;100786.66;5095756;28;20063;-73
2021/05/03 11:03:57;;;;;;;3.25;1.38;;;;;;;21.10;47.09;100782.34;5095072;28;20028;-73
2021/05/03 11:06:49;;;;;;;3.38;1.27;;;;;;;21.36;46.76;100784.50;5094994;28;20028;-73
2021/05/03 11:09:39;;;;;;;4.53;1.20;;;;;;;21.53;46.02;100730.91;5064000;28;20039;-73
2021/05/03 11:12:05;;;;;;;2.58;2.15;;;;;;;22.32;44.82;100775.91;5095655;28;20129;-73
2021/05/03 11:14:33;;;;;;;2.22;1.10;;;;;;;22.65;43.33;100771.31;5094925;28;20461;-72
2021/05/03 11:17:02;;;;;;;3.45;1.63;;;;;;;22.74;42.76;100772.38;5095075;28;20066;-72
2021/05/03 11:22:26;;;;;;;4.30;1.30;;;;;;;22.86;42.43;100770.94;5096350;28;20082;-73
2021/05/03 11:25:03;;;;;;;3.83;1.20;;;;;;;22.43;43.30;100753.88;5094289;28;20047;-73
2021/05/03 11:30:42;;;;;;;1.83;1.30;;;;;;;23.21;41.73;100755.28;5096225;28;20530;-73
2021/05/03 11:33:21;;;;;;;4.72;1.00;;;;;;;23.15;39.32;100759.06;5094773;28;20386;-73
2021/05/03 11:46:31;;;;;;;2.38;1.13;;;;;;;23.66;39.82;100766.16;5095606;28;20420;-72
2021/05/03 11:48:58;;;;;;;3.78;1.10;;;;;;;23.61;37.81;100771.53;5094230;28;20024;-72
2021/05/03 11:51:24;;;;;;;2.30;1.30;;;;;;;23.04;42.01;100753.59;5094274;28;20470;-73
2021/05/03 11:53:53;;;;;;;4.18;1.10;;;;;;;22.86;41.55;100765.25;5094120;28;20036;-73
2021/05/03 11:56:22;;;;;;;3.40;1.48;;;;;;;22.82;41.32;100764.50;5094137;28;20024;-73
2021/05/03 11:58:51;;;;;;;1.40;1.15;;;;;;;22.78;39.94;100717.59;5094075;28;20028;-72
2021/05/03 12:01:17;;;;;;;4.15;1.40;;;;;;;22.57;43.38;100755.66;5094077;28;20028;-73
2021/05/03 12:03:48;;;;;;;3.92;1.02;;;;;;;22.83;43.25;100737.75;5094393;28;20465;-73
2021/05/03 12:06:37;;;;;;;2.00;1.30;;;;;;;22.50;44.28;100756.56;5093564;28;20020;-73
2021/05/03 12:09:13;;;;;;;2.92;1.10;;;;;;;21.62;45.85;100762.31;5095419;28;20537;-72
2021/05/03 12:11:53;;;;;;;2.88;1.20;;;;;;;21.89;45.16;100760.34;5095059;28;20040;-73